createdAt,value
2018-12-29T00:06:05.858Z,102324.19
2018-12-29T00:09:14.264Z,102328.41
2018-12-29T00:12:03.502Z,102331.27
2018-12-29T00:14:55.181Z,102333.30
2018-12-29T00:18:25.830Z,102335.39
2018-12-29T00:21:15.122Z,102329.38
2018-12-29T00:24:04.549Z,102332.36
2018-12-29T00:27:13.008Z,102334.75
2018-12-29T00:30:02.373Z,102322.30
2018-12-29T00:32:51.635Z,102326.73
2018-12-29T00:35:40.983Z,102331.16
2018-12-29T00:38:30.269Z,102333.84
2018-12-29T00:41:19.791Z,102336.86
2018-12-29T00:43:49.708Z,102331.30
2018-12-29T00:46:39.276Z,102338.46
2018-12-29T00:49:28.704Z,102343.00
2018-12-29T00:52:17.927Z,102344.41
2018-12-29T00:55:26.497Z,102346.69
2018-12-29T01:01:44.622Z,102346.00
2018-12-29T01:04:33.972Z,102346.55
2018-12-29T01:07:23.297Z,102348.00
2018-12-29T01:10:12.564Z,102349.53
2018-12-29T01:13:01.757Z,102348.37
2018-12-29T01:15:50.989Z,102346.92
2018-12-29T01:18:32.993Z,102352.47
2018-12-29T01:21:22.295Z,102344.23
2018-12-29T01:24:11.735Z,102350.33
2018-12-29T01:27:00.992Z,102355.55
2018-12-29T01:29:50.144Z,102356.84
2018-12-29T01:32:39.328Z,102351.70
2018-12-29T01:35:28.507Z,102351.23
2018-12-29T01:38:17.718Z,102350.48
2018-12-29T01:41:06.907Z,102351.66
2018-12-29T01:43:56.177Z,102351.11
2018-12-29T01:46:45.481Z,102349.00
2018-12-29T01:49:34.713Z,102339.21
2018-12-29T01:52:23.951Z,102337.55
2018-12-29T01:55:13.246Z,102334.48
2018-12-29T01:58:02.518Z,102338.26
2018-12-29T02:00:51.873Z,102337.06
2018-12-29T02:03:41.467Z,102336.09
2018-12-29T02:06:30.658Z,102341.20
2018-12-29T02:09:19.935Z,102336.51
2018-12-29T02:12:09.094Z,102339.62
2018-12-29T02:14:58.293Z,102331.70
2018-12-29T02:17:47.544Z,102327.72
2018-12-29T02:20:36.724Z,102329.05
2018-12-29T02:23:26.248Z,102330.70
2018-12-29T02:25:56.186Z,102332.24
2018-12-29T02:28:26.095Z,102330.66
2018-12-29T02:30:55.995Z,102328.56
2018-12-29T02:33:25.976Z,102327.10
2018-12-29T02:35:56.093Z,102326.35
2018-12-29T02:38:26.235Z,102323.25
2018-12-29T02:40:56.370Z,102319.60
2018-12-29T02:43:45.551Z,102320.22
2018-12-29T02:46:34.991Z,102325.84
2018-12-29T02:49:04.889Z,102319.09
2018-12-29T02:51:34.805Z,102319.90
2018-12-29T02:54:04.692Z,102324.30
2018-12-29T02:56:34.706Z,102318.03
2018-12-29T02:59:04.607Z,102315.41
2018-12-29T03:01:34.578Z,102318.27
2018-12-29T03:04:04.465Z,102308.24
2018-12-29T03:06:34.595Z,102309.41
2018-12-29T03:09:05.437Z,102310.15
2018-12-29T03:11:35.442Z,102310.52
2018-12-29T03:14:05.564Z,102313.05
2018-12-29T03:16:35.712Z,102314.20
2018-12-29T03:19:05.659Z,102311.48
2018-12-29T03:21:35.806Z,102311.09
2018-12-29T03:24:05.710Z,102306.45
2018-12-29T03:26:35.587Z,102311.09
2018-12-29T03:29:05.554Z,102307.87
2018-12-29T03:31:54.745Z,102302.65
2018-12-29T03:34:43.914Z,102301.16
2018-12-29T03:37:33.428Z,102299.12
2018-12-29T03:40:22.593Z,102295.02
2018-12-29T03:43:31.011Z,102294.70
2018-12-29T03:46:20.166Z,102301.39
2018-12-29T03:49:09.505Z,102297.80
2018-12-29T03:51:58.656Z,102291.27
2018-12-29T03:54:47.813Z,102290.98
2018-12-29T03:57:36.966Z,102288.84
2018-12-29T04:00:26.132Z,102288.72
2018-12-29T04:03:15.298Z,102287.37
2018-12-29T04:06:04.459Z,102284.37
2018-12-29T04:09:32.060Z,102283.72
2018-12-29T04:12:24.422Z,102288.69
2018-12-29T04:14:54.333Z,102285.80
2018-12-29T04:17:24.258Z,102287.53
2018-12-29T04:19:54.172Z,102286.41
2018-12-29T04:22:24.079Z,102289.59
2018-12-29T04:24:54.174Z,102298.01
2018-12-29T04:27:43.566Z,102296.52
2018-12-29T04:30:32.717Z,102291.73
2018-12-29T04:33:21.913Z,102298.45
2018-12-29T04:36:11.074Z,102295.67
2018-12-29T04:39:00.241Z,102299.42
2018-12-29T04:41:49.417Z,102305.88
2018-12-29T04:44:38.588Z,102295.80
2018-12-29T04:47:27.932Z,102292.88
2018-12-29T04:50:17.096Z,102298.29
2018-12-29T04:53:06.309Z,102295.23
2018-12-29T04:55:55.463Z,102294.92
2018-12-29T04:58:44.873Z,102294.94
2018-12-29T05:01:34.127Z,102295.73
2018-12-29T05:04:23.300Z,102299.38
2018-12-29T05:07:12.490Z,102299.27
2018-12-29T05:10:01.679Z,102303.84
2018-12-29T05:12:50.873Z,102308.66
2018-12-29T05:15:40.280Z,102306.00
2018-12-29T05:18:22.720Z,102309.14
2018-12-29T05:21:12.252Z,102309.73
2018-12-29T05:24:01.499Z,102307.97
2018-12-29T05:26:50.616Z,102300.55
2018-12-29T05:29:40.000Z,102298.78
2018-12-29T05:32:29.436Z,102307.45
2018-12-29T05:35:18.929Z,102310.06
2018-12-29T05:41:22.825Z,102314.17
2018-12-29T05:44:12.016Z,102305.95
2018-12-29T05:47:01.619Z,102312.26
2018-12-29T05:49:50.809Z,102312.63
2018-12-29T05:52:39.989Z,102316.98
2018-12-29T05:55:29.189Z,102316.33
2018-12-29T05:58:18.346Z,102309.75
2018-12-29T06:04:02.359Z,102324.38
2018-12-29T06:06:51.542Z,102320.93
2018-12-29T06:12:35.151Z,102331.30
2018-12-29T06:15:05.533Z,102331.05
2018-12-29T06:17:55.079Z,102330.84
2018-12-29T06:20:44.233Z,102332.37
2018-12-29T06:23:33.401Z,102325.70
2018-12-29T06:26:22.578Z,102330.75
2018-12-29T06:29:11.735Z,102333.45
2018-12-29T06:32:00.941Z,102341.75
2018-12-29T06:37:58.492Z,102349.56
2018-12-29T06:40:47.670Z,102360.05
2018-12-29T06:43:43.933Z,102354.09
2018-12-29T06:46:35.182Z,102345.30
2018-12-29T06:49:23.989Z,102341.77
2018-12-29T06:52:13.233Z,102340.71
2018-12-29T06:55:02.479Z,102351.98
2018-12-29T06:57:51.678Z,102352.75
2018-12-29T07:00:40.825Z,102353.75
2018-12-29T07:03:30.310Z,102349.95
2018-12-29T07:06:19.517Z,102338.50
2018-12-29T07:09:08.683Z,102331.55
2018-12-29T07:11:57.958Z,102335.62
2018-12-29T07:14:47.167Z,102322.96
2018-12-29T07:17:36.648Z,102318.16
2018-12-29T07:20:06.659Z,102322.47
2018-12-29T07:22:36.638Z,102328.67
2018-12-29T07:25:25.788Z,102332.49
2018-12-29T07:28:14.961Z,102331.95
2018-12-29T07:31:04.101Z,102338.50
2018-12-29T07:33:53.623Z,102333.16
2018-12-29T07:36:42.795Z,102329.67
2018-12-29T07:45:21.974Z,102333.19
2018-12-29T07:48:11.151Z,102336.02
2018-12-29T07:51:00.648Z,102331.47
2018-12-29T07:53:49.830Z,102335.71
2018-12-29T07:56:39.284Z,102331.24
2018-12-29T07:59:28.441Z,102327.54
2018-12-29T08:02:17.590Z,102335.59
2018-12-29T08:05:07.100Z,102332.48
2018-12-29T08:07:56.277Z,102336.54
2018-12-29T08:10:45.483Z,102337.02
2018-12-29T08:13:35.109Z,102327.72
2018-12-29T08:16:24.223Z,102325.98
2018-12-29T08:19:06.260Z,102321.08
2018-12-29T08:21:55.374Z,102320.30
2018-12-29T08:24:44.560Z,102324.73
2018-12-29T08:27:34.289Z,102328.45
2018-12-29T08:30:23.456Z,102336.75
2018-12-29T08:33:13.074Z,102335.89
2018-12-29T08:36:02.507Z,102339.08
2018-12-29T08:38:51.759Z,102344.13
2018-12-29T08:44:49.985Z,102346.00
2018-12-29T08:47:20.014Z,102338.87
2018-12-29T08:50:13.272Z,102336.34
2018-12-29T08:53:20.522Z,102338.67
2018-12-29T08:56:09.716Z,102337.35
2018-12-29T08:58:58.878Z,102333.11
2018-12-29T09:01:48.061Z,102337.09
2018-12-29T09:04:37.283Z,102332.62
2018-12-29T09:07:26.461Z,102332.25
2018-12-29T09:10:16.090Z,102336.20
2018-12-29T09:13:06.102Z,102336.30
2018-12-29T09:18:49.552Z,102338.67
2018-12-29T09:21:34.167Z,102333.66
2018-12-29T09:24:23.339Z,102333.44
2018-12-29T09:27:12.785Z,102333.97
2018-12-29T09:30:01.947Z,102333.03
2018-12-29T09:32:51.558Z,102331.39
2018-12-29T09:35:40.767Z,102340.30
2018-12-29T09:38:30.003Z,102337.35
2018-12-29T09:41:19.453Z,102335.98
2018-12-29T09:44:27.686Z,102333.95
2018-12-29T09:47:19.760Z,102336.30
2018-12-29T09:50:08.187Z,102337.53
2018-12-29T09:52:57.375Z,102329.94
2018-12-29T09:55:46.598Z,102328.70
2018-12-29T10:01:30.066Z,102306.29
2018-12-29T10:04:19.269Z,102299.76
2018-12-29T10:07:08.830Z,102308.39
2018-12-29T10:09:58.152Z,102309.84
2018-12-29T10:12:47.660Z,102296.86
2018-12-29T10:15:36.958Z,102303.56
2018-12-29T10:18:18.878Z,102297.30
2018-12-29T10:21:08.436Z,102287.09
2018-12-29T10:23:57.853Z,102281.86
2018-12-29T10:26:47.710Z,102263.64
2018-12-29T10:29:37.226Z,102264.30
2018-12-29T10:32:26.642Z,102260.95
2018-12-29T10:35:15.913Z,102259.80
2018-12-29T10:38:05.351Z,102260.72
2018-12-29T10:40:54.544Z,102253.00
2018-12-29T10:47:00.202Z,102257.53
2018-12-29T10:49:49.525Z,102254.58
2018-12-29T10:52:39.121Z,102254.13
2018-12-29T10:55:47.686Z,102252.80
2018-12-29T10:58:56.147Z,102253.77
2018-12-29T11:01:45.988Z,102246.51
2018-12-29T11:04:35.354Z,102253.90
2018-12-29T11:10:33.587Z,102244.14
2018-12-29T11:13:23.041Z,102235.80
2018-12-29T11:16:17.995Z,102233.11
2018-12-29T11:18:48.561Z,102235.00
2018-12-29T11:21:19.451Z,102229.93
2018-12-29T11:23:50.515Z,102226.82
2018-12-29T11:26:21.032Z,102220.05
2018-12-29T11:28:52.083Z,102221.33
2018-12-29T11:31:23.311Z,102211.35
2018-12-29T11:33:53.971Z,102206.09
2018-12-29T11:36:23.947Z,102194.30
2018-12-29T11:38:53.924Z,102187.83
2018-12-29T11:41:25.537Z,102178.14
2018-12-29T11:43:58.263Z,102174.05
2018-12-29T11:46:28.218Z,102171.95
2018-12-29T11:48:58.354Z,102177.20
2018-12-29T11:51:28.898Z,102171.84
2018-12-29T11:53:58.911Z,102172.05
2018-12-29T11:56:28.898Z,102171.01
2018-12-29T11:58:58.814Z,102162.47
2018-12-29T12:01:28.869Z,102153.59
2018-12-29T12:03:59.189Z,102147.59
2018-12-29T12:06:29.618Z,102128.47
2018-12-29T12:09:00.171Z,102133.28
2018-12-29T12:11:30.855Z,102149.95
2018-12-29T12:14:01.261Z,102152.65
2018-12-29T12:16:31.262Z,102163.27
2018-12-29T12:19:01.328Z,102155.89
2018-12-29T12:21:31.576Z,102154.52
2018-12-29T12:24:01.940Z,102147.39
2018-12-29T12:26:32.039Z,102148.77
2018-12-29T12:29:02.082Z,102146.64
2018-12-29T12:31:32.325Z,102143.90
2018-12-29T12:34:02.705Z,102146.44
2018-12-29T12:36:33.283Z,102151.86
2018-12-29T12:39:22.925Z,102147.99
2018-12-29T12:42:12.205Z,102152.00
2018-12-29T12:45:01.689Z,102150.45
2018-12-29T12:50:46.391Z,102154.72
2018-12-29T12:53:35.642Z,102153.72
2018-12-29T12:56:24.843Z,102154.78
2018-12-29T12:59:14.128Z,102136.72
2018-12-29T13:02:03.565Z,102145.02
2018-12-29T13:04:53.129Z,102151.80
2018-12-29T13:07:42.363Z,102142.98
2018-12-29T13:10:31.598Z,102139.42
2018-12-29T13:13:20.854Z,102138.80
2018-12-29T13:19:11.224Z,102134.17
2018-12-29T13:22:00.400Z,102131.71
2018-12-29T13:24:49.688Z,102132.91
2018-12-29T13:27:38.904Z,102133.90
2018-12-29T13:30:28.518Z,102122.27
2018-12-29T13:33:17.788Z,102134.96
2018-12-29T13:39:17.060Z,102127.48
2018-12-29T13:42:06.472Z,102130.80
2018-12-29T13:44:55.678Z,102126.36
2018-12-29T13:48:03.969Z,102121.94
2018-12-29T13:50:53.356Z,102125.55
2018-12-29T13:53:42.635Z,102126.26
2018-12-29T13:56:32.289Z,102126.58
2018-12-29T13:59:23.091Z,102130.19
2018-12-29T14:02:12.344Z,102127.97
2018-12-29T14:05:01.829Z,102131.86
2018-12-29T14:07:51.048Z,102136.98
2018-12-29T14:10:40.862Z,102136.85
2018-12-29T14:13:10.864Z,102141.77
2018-12-29T14:15:40.913Z,102135.41
2018-12-29T14:18:11.039Z,102128.50
2018-12-29T14:20:40.989Z,102122.14
2018-12-29T14:23:10.923Z,102122.33
2018-12-29T14:25:41.367Z,102113.08
2018-12-29T14:28:11.277Z,102108.88
2018-12-29T14:30:41.239Z,102105.35
2018-12-29T14:33:11.508Z,102108.00
2018-12-29T14:35:41.686Z,102098.66
2018-12-29T14:38:31.053Z,102092.57
2018-12-29T14:41:20.595Z,102094.66
2018-12-29T14:43:50.481Z,102085.16
2018-12-29T14:46:20.481Z,102087.06
2018-12-29T14:48:50.391Z,102086.02
2018-12-29T14:51:20.638Z,102073.77
2018-12-29T14:53:50.669Z,102083.92
2018-12-29T14:56:20.546Z,102060.44
2018-12-29T14:58:50.604Z,102051.84
2018-12-29T15:01:20.916Z,102053.73
2018-12-29T15:03:50.829Z,102047.84
2018-12-29T15:06:20.790Z,102048.36
2018-12-29T15:08:50.829Z,102040.61
2018-12-29T15:11:21.059Z,102033.61
2018-12-29T15:13:50.970Z,102029.56
2018-12-29T15:16:20.998Z,102015.09
2018-12-29T15:18:51.185Z,102025.70
2018-12-29T15:21:21.274Z,102004.46
2018-12-29T15:23:51.528Z,102002.30
2018-12-29T15:26:21.533Z,101997.89
2018-12-29T15:28:52.223Z,101998.44
2018-12-29T15:31:22.329Z,101992.17
2018-12-29T15:33:52.569Z,101987.38
2018-12-29T15:36:22.605Z,101982.61
2018-12-29T15:38:52.760Z,101978.69
2018-12-29T15:41:42.086Z,101972.63
2018-12-29T15:44:31.411Z,101968.89
2018-12-29T15:47:22.398Z,101963.89
2018-12-29T15:50:13.328Z,101953.67
2018-12-29T15:53:02.501Z,101950.30
2018-12-29T15:55:52.046Z,101949.55
2018-12-29T15:58:42.965Z,101931.34
2018-12-29T16:01:33.872Z,101921.58
2018-12-29T16:04:23.216Z,101924.27
2018-12-29T16:07:12.523Z,101919.14
2018-12-29T16:10:02.498Z,101919.50
2018-12-29T16:12:51.699Z,101914.59
2018-12-29T16:15:42.818Z,101920.40
2018-12-29T16:18:32.013Z,101920.40
2018-12-29T16:21:24.118Z,101924.50
2018-12-29T16:24:13.350Z,101926.61
2018-12-29T16:27:02.550Z,101920.27
2018-12-29T16:29:51.771Z,101920.67
2018-12-29T16:32:41.152Z,101921.86
2018-12-29T16:35:30.486Z,101905.69
2018-12-29T16:38:21.527Z,101913.53
2018-12-29T16:41:10.710Z,101907.03
2018-12-29T16:44:00.072Z,101896.61
2018-12-29T16:46:49.340Z,101889.36
2018-12-29T16:49:57.844Z,101894.87
2018-12-29T16:52:49.017Z,101890.16
2018-12-29T16:55:38.301Z,101882.33
2018-12-29T16:58:29.376Z,101887.59
2018-12-29T17:01:39.486Z,101883.72
2018-12-29T17:04:29.070Z,101871.34
2018-12-29T17:07:18.368Z,101871.99
2018-12-29T17:10:26.739Z,101873.20
2018-12-29T17:13:16.050Z,101873.73
2018-12-29T17:16:05.519Z,101862.52
2018-12-29T17:18:48.171Z,101868.18
2018-12-29T17:21:37.388Z,101857.55
2018-12-29T17:24:28.355Z,101856.21
2018-12-29T17:27:19.334Z,101863.14
2018-12-29T17:30:08.634Z,101856.73
2018-12-29T17:32:58.423Z,101852.81
2018-12-29T17:35:28.679Z,101853.87
2018-12-29T17:37:58.906Z,101844.77
2018-12-29T17:40:29.013Z,101845.61
2018-12-29T17:42:59.263Z,101840.78
2018-12-29T17:45:29.515Z,101835.97
2018-12-29T17:48:00.500Z,101830.72
2018-12-29T17:50:33.116Z,101799.41
2018-12-29T17:53:22.748Z,101814.09
2018-12-29T17:56:12.070Z,101813.98
2018-12-29T17:59:01.511Z,101810.13
2018-12-29T18:01:50.770Z,101812.94
2018-12-29T18:04:40.029Z,101807.68
2018-12-29T18:07:29.219Z,101801.55
2018-12-29T18:10:18.514Z,101796.75
2018-12-29T18:13:07.808Z,101791.34
2018-12-29T18:15:56.992Z,101777.66
2018-12-29T18:18:39.443Z,101773.28
2018-12-29T18:21:28.666Z,101769.35
2018-12-29T18:24:17.844Z,101765.08
2018-12-29T18:27:07.145Z,101756.61
2018-12-29T18:30:15.433Z,101746.97
2018-12-29T18:33:04.598Z,101750.02
2018-12-29T18:35:53.759Z,101739.13
2018-12-29T18:38:43.024Z,101731.88
2018-12-29T18:41:32.242Z,101726.17
2018-12-29T18:44:21.609Z,101718.17
2018-12-29T18:47:12.593Z,101707.38
2018-12-29T18:50:02.116Z,101695.23
2018-12-29T18:52:51.412Z,101690.16
2018-12-29T18:55:44.252Z,101688.20
2018-12-29T18:58:34.948Z,101684.20
2018-12-29T19:04:19.746Z,101679.73
2018-12-29T19:07:09.196Z,101666.47
2018-12-29T19:09:58.853Z,101679.98
2018-12-29T19:12:51.634Z,101675.81
2018-12-29T19:15:40.881Z,101673.68
2018-12-29T19:18:30.364Z,101667.55
2018-12-29T19:21:21.240Z,101650.44
2018-12-29T19:24:33.319Z,101650.67
2018-12-29T19:27:03.385Z,101640.55
2018-12-29T19:29:52.804Z,101636.94
2018-12-29T19:35:38.007Z,101637.48
2018-12-29T19:38:27.210Z,101638.05
2018-12-29T19:41:18.083Z,101625.11
2018-12-29T19:44:09.105Z,101606.39
2018-12-29T19:47:00.205Z,101597.62
2018-12-29T19:49:53.852Z,101588.09
2018-12-29T19:52:42.308Z,101590.91
2018-12-29T19:55:31.521Z,101580.65
2018-12-29T19:58:20.777Z,101575.39
2018-12-29T20:01:10.461Z,101566.91
2018-12-29T20:03:59.704Z,101571.77
2018-12-29T20:07:08.679Z,101561.01
2018-12-29T20:09:57.929Z,101554.39
2018-12-29T20:12:47.191Z,101551.19
2018-12-29T20:15:36.774Z,101539.90
2018-12-29T20:18:26.086Z,101541.73
2018-12-29T20:21:15.322Z,101543.67
2018-12-29T20:24:04.545Z,101531.88
2018-12-29T20:26:54.205Z,101537.50
2018-12-29T20:29:43.965Z,101534.42
2018-12-29T20:32:58.924Z,101539.71
2018-12-29T20:35:44.366Z,101521.80
2018-12-29T20:38:35.513Z,101514.27
2018-12-29T20:42:06.922Z,101507.17
2018-12-29T20:44:56.171Z,101508.91
2018-12-29T20:47:45.472Z,101492.25
2018-12-29T20:50:34.870Z,101476.89
2018-12-29T20:53:24.366Z,101485.44
2018-12-29T20:56:13.568Z,101475.92
2018-12-29T20:59:02.878Z,101471.75
2018-12-29T21:01:52.242Z,101466.00
2018-12-29T21:04:41.737Z,101453.77
2018-12-29T21:10:39.169Z,101440.40
2018-12-29T21:13:30.289Z,101439.33
2018-12-29T21:16:19.615Z,101427.55
2018-12-29T21:19:03.649Z,101420.31
2018-12-29T21:21:52.926Z,101420.77
2018-12-29T21:24:42.179Z,101411.83
2018-12-29T21:31:00.547Z,101401.75
2018-12-29T21:33:50.117Z,101397.26
2018-12-29T21:36:39.475Z,101394.34
2018-12-29T21:39:28.730Z,101386.64
2018-12-29T21:42:18.014Z,101379.77
2018-12-29T21:45:07.568Z,101381.84
2018-12-29T21:47:56.863Z,101370.92
2018-12-29T21:50:46.154Z,101370.97
2018-12-29T21:53:35.463Z,101361.36
2018-12-29T21:56:43.779Z,101354.64
2018-12-29T21:59:33.081Z,101349.36
2018-12-29T22:02:24.028Z,101358.77
2018-12-29T22:05:13.310Z,101361.91
2018-12-29T22:08:03.113Z,101343.88
2018-12-29T22:10:52.418Z,101345.06
2018-12-29T22:13:43.314Z,101347.56
2018-12-29T22:16:32.531Z,101337.74
2018-12-29T22:19:16.713Z,101337.11
2018-12-29T22:22:05.906Z,101338.58
2018-12-29T22:24:55.399Z,101326.20
2018-12-29T22:27:44.608Z,101325.30
2018-12-29T22:30:33.810Z,101314.53
2018-12-29T22:33:23.004Z,101332.37
2018-12-29T22:36:12.212Z,101322.73
2018-12-29T22:39:01.473Z,101311.81
2018-12-29T22:41:50.774Z,101321.23
2018-12-29T22:44:39.998Z,101310.72
2018-12-29T22:47:29.165Z,101309.66
2018-12-29T22:50:18.433Z,101308.27
2018-12-29T22:53:07.655Z,101302.03
2018-12-29T22:55:37.645Z,101295.92
2018-12-29T22:58:08.689Z,101295.42
2018-12-29T23:00:43.409Z,101285.38
2018-12-29T23:03:13.637Z,101273.03
2018-12-29T23:05:43.527Z,101279.27
2018-12-29T23:08:13.825Z,101279.57
2018-12-29T23:10:43.959Z,101281.66
2018-12-29T23:13:14.088Z,101271.63
2018-12-29T23:16:03.291Z,101273.12
2018-12-29T23:18:45.615Z,101272.51
2018-12-29T23:21:34.814Z,101271.20
2018-12-29T23:24:25.771Z,101260.59
2018-12-29T23:27:15.210Z,101257.78
2018-12-29T23:33:33.109Z,101260.82
2018-12-29T23:36:22.301Z,101255.99
2018-12-29T23:39:13.539Z,101250.52
2018-12-29T23:41:45.333Z,101255.19
2018-12-29T23:44:15.257Z,101249.93
2018-12-29T23:47:23.503Z,101260.48
2018-12-29T23:50:12.863Z,101247.05
2018-12-29T23:53:04.164Z,101253.85
2018-12-29T23:55:55.509Z,101257.00
2018-12-29T23:58:44.765Z,101259.48
